Terminal Aerodrome Forecast
Issued by NWS Grand Forks, ND

Home | Current Version | Previous Version | Graphics & Text | Print | Product List | Glossary On
Versions: 1 2 3 4 5 6 7 8 9 10 11 12 13 14 15 16 17 18 19 20 21 22 23
000
FTUS43 KFGF 021600 AAA
TAFGFK
TAF AMD
KGFK 021603Z 0216/0312 19003KT P6SM -SHRA BKN070
     FM021645 24007KT P6SM BKN070
     FM021900 24012G19KT P6SM BKN100
     FM030100 21006KT P6SM SKC=

USA.gov is the U.S. government's official web portal to all federal, state and local government web resources and services.